La Habra, California
Current Conditions -  °F | °C
As of 12:53 PM on Sunday 23 Nov 2014 (Local Time) from KFUL Reporting Station
Clear Clear  
Wind Chill: 79°   Ceiling: Unl
Heat Index: 79°   Visibility: 10mi
Dew Point: 32°   Wind: 0mph
Humidity: 18%   Direction: NA
Pressure: 30.05"   Gusts: NA
Location:  33.93°N, 117.94°W
Report Text: KFUL 232053Z 00000KT 10SM CLR 26/00 A3005 RMK AO2 SLP175 T02610000 58023
Loading
Personal Weather Stations






























Interactive Weather Map New forecast layout! Learn more

10-Day Weather Forecast

Advertisements
Track Severe Weather on mobile